Latest Coastal Weather Observations for Taree Airport

IDN60701

Issued at 1:01 am EST Sunday 1 May 2016 (issued every 10 minutes, with the page automatically refreshed every 10 minutes)

About coastal observations | Map of coastal stations | Coastal observations for NSW | Marine services | Other Formats
Station Details ID: 060141 Name: TAREE AIRPORT AWS Lat: -31.89 Lon: 152.51 Height: 8.0 m
Data from the previous 72 hours. | See also: Recent months at Taree Airport
Date/Time
EST
Temp

°C
Wind Pressure Rain
since 9am
mm
Weather Cloud Vis
km
Sea
Height
m
Swell
Dir
 
Speed
knots
Gust
knots
hPa Trend Height
m
Period
s
Dir
01/12:39am 18.8 NW 4 5 1016.0 - 2.4 - Partly cloudy - - - - -
01/12:30am 18.6 WNW 3 5 1016.2 - 2.4 - Partly cloudy - - - - -
01/12:10am 18.5 CALM 0 2 1016.0 - 2.4 - Partly cloudy 0.5 - - - -
01/12:00am 18.8 SW 1 4 1016.3 - 2.4 - Partly cloudy 2 - - - -
 
Date/Time
EST
Temp

°C
Wind Pressure Rain
since 9am
mm
Weather Cloud Vis
km
Sea
Height
m
Swell
Dir
 
Speed
knots
Gust
knots
hPa Trend Height
m
Period
s
Dir
30/11:38pm 19.0 CALM 0 0 1016.6 - 2.4 - Partly cloudy 2 - - - -
30/11:30pm 19.1 NW 1 3 1016.7 - 2.4 - Partly cloudy 0.2 - - - -
30/11:25pm 18.9 NW 2 4 1016.7 - 2.4 - Partly cloudy 0.2 - - - -
30/11:23pm 18.2 NW 3 4 1016.7 - 2.4 - Partly cloudy 0.2 - - - -
30/11:00pm 18.8 NNE 3 5 1016.9 - 2.4 - Partly cloudy 0.3 - - - -
30/10:56pm 18.5 NE 4 5 1016.7 - 2.4 - Partly cloudy 0.3 - - - -
30/10:34pm 19.1 NNW 1 4 1017.1 - 2.4 - Partly cloudy 3 - - - -
30/10:30pm 19.4 CALM 0 0 1017.2 - 2.4 - Partly cloudy 10 - - - -
30/10:00pm 20.0 WSW 3 7 1017.5 - 2.4 - Partly cloudy 10 - - - -
30/09:32pm 19.8 CALM 0 0 1017.3 - 2.4 - - 10 - - - -
30/09:30pm 19.8 CALM 0 0 1017.3 - 2.4 - - 10 - - - -
30/09:07pm 19.7 CALM 0 0 1017.6 - 2.4 - - 5 - - - -
30/09:04pm 19.9 CALM 0 0 1017.7 - 2.4 - - 10 - - - -
30/09:00pm 19.8 CALM 0 0 1017.8 - 2.4 - Mostly clear 10 - - - -
30/08:41pm 19.4 CALM 0 0 1017.7 - 2.4 - - 5 - - - -
30/08:38pm 19.9 CALM 0 0 1017.7 - 2.4 - - 10 - - - -
30/08:30pm 20.3 CALM 0 0 1017.5 - 2.4 - - 8 - - - -
30/08:17pm 20.0 CALM 0 0 1017.2 - 2.4 - - 4 - - - -
30/08:00pm 20.6 CALM 0 0 1017.5 - 2.4 - - 10 - - - -
30/07:30pm 20.5 N 2 5 1017.7 - 2.4 - Partly cloudy 10 - - - -
30/07:00pm 21.0 W 4 5 1017.8 - 2.4 - Partly cloudy 10 - - - -
30/06:30pm 21.3 SSW 5 6 1017.5 - 2.4 - Partly cloudy 10 - - - -
30/06:00pm 22.1 N 6 7 1017.2 - 1.0 Rain Cloudy 10 - - - -
30/05:30pm 23.3 ENE 6 8 1016.5 - 0.0 - Partly cloudy 10 - - - -
30/05:00pm 23.8 NE 8 10 1016.0 - 0.0 - - 10 - - - -
30/04:30pm 25.2 NE 7 10 1016.0 - 0.0 - - 10 - - - -
30/04:00pm 27.1 NE 10 13 1015.8 - 0.0 - - 10 - - - -
30/03:30pm 27.9 ENE 9 12 1015.7 - 0.0 - - 10 - - - -
30/03:00pm 28.5 ENE 7 10 1015.8 - 0.0 - - 10 - - - -
30/02:30pm 27.8 E 6 13 1016.0 - 0.0 - - 10 - - - -
30/02:00pm 28.0 E 7 10 1016.2 - 0.0 - - 10 - - - -
30/01:30pm 27.4 SE 4 7 1016.4 - 0.0 - - 10 - - - -
30/01:00pm 26.8 ESE 5 8 1016.7 - 0.0 - - 10 - - - -
30/12:30pm 25.8 ESE 4 5 1017.3 - 0.0 - - 10 - - - -
30/12:00pm 25.1 ENE 3 5 1017.9 - 0.0 - - 10 - - - -
30/11:30am 24.5 N 3 5 1018.4 - 0.0 - - 10 - - - -
30/11:00am 24.2 NE 3 5 1019.0 - 0.0 - - 10 - - - -
30/10:30am 23.7 WNW 3 4 1019.4 - 0.0 - - 10 - - - -
30/10:00am 21.7 WSW 4 5 1019.7 - 0.0 - - 10 - - - -
30/09:30am 20.6 CALM 0 3 1019.9 - 0.0 - - 10 - - - -
30/09:00am 18.1 SW 4 5 1020.1 - 0.0 - Mostly clear 10 - - - -
30/08:30am 16.9 CALM 0 0 1020.3 - 0.0 - - 10 - - - -
30/08:00am 16.2 WSW 3 4 1020.2 - 0.0 - - - - - - -
30/07:30am 15.6 SSW 4 4 1020.0 - 0.0 - - - - - - -
30/07:00am 15.5 NNW 2 4 1019.7 - 0.0 - - 10 - - - -
30/06:43am 14.7 CALM 0 0 1019.5 - 0.0 - - 10 - - - -
30/06:30am 14.1 CALM 0 0 1019.4 - 0.0 - - 4 - - - -
30/06:24am 14.0 CALM 0 0 1019.4 - 0.0 - - 5 - - - -
30/06:21am 14.3 CALM 0 0 1019.4 - 0.0 - - 10 - - - -
30/06:02am 14.6 CALM 0 0 1019.2 - 0.0 - - 4 - - - -
30/06:00am 14.6 CALM 0 0 1019.2 - 0.0 - - 10 - - - -
30/05:30am 15.4 CALM 0 0 1019.0 - 0.0 - - 10 - - - -
30/05:00am 16.0 W 3 5 1018.9 - 0.0 - - 10 - - - -
30/04:30am 15.8 CALM 0 0 1018.8 - 0.0 - - 10 - - - -
30/04:00am 15.6 WSW 1 4 1018.8 - 0.0 - - 10 - - - -
30/03:30am 16.2 WSW 3 5 1018.6 - 0.0 - - 10 - - - -
30/03:00am 16.6 WSW 4 5 1018.7 - 0.0 - - 10 - - - -
30/02:30am 17.2 SSW 1 4 1018.7 - 0.0 - - 10 - - - -
30/02:00am 16.9 WNW 2 4 1019.0 - 0.0 - - 10 - - - -
30/01:30am 17.3 CALM 0 0 1019.3 - 0.0 - - 10 - - - -
30/01:00am 17.7 CALM 0 0 1019.7 - 0.0 - - 10 - - - -
30/12:30am 19.6 N 2 5 1019.7 - 0.0 - - 10 - - - -
30/12:00am 19.9 NNE 5 8 1019.7 - 0.0 - - 10 - - - -
 
Date/Time
EST
Temp

°C
Wind Pressure Rain
since 9am
mm
Weather Cloud Vis
km
Sea
Height
m
Swell
Dir
 
Speed
knots
Gust
knots
hPa Trend Height
m
Period
s
Dir
29/11:30pm 19.1 NE 5 6 1019.7 - 0.0 - - 10 - - - -
29/11:00pm 20.0 NNE 5 7 1020.0 - 0.0 - - 10 - - - -
29/10:30pm 20.4 NNE 4 8 1020.6 - 0.0 - - 10 - - - -
29/10:00pm 20.8 NNE 5 7 1020.7 - 0.0 - - 10 - - - -
29/09:30pm 19.9 NE 7 8 1020.8 - 0.0 - - 10 - - - -
29/09:00pm 20.7 NNE 5 7 1020.7 - 0.0 - Cloudy 10 - - - -
29/08:30pm 20.2 NE 6 8 1020.7 - 0.0 - - 10 - - - -
29/08:00pm 20.8 NNE 6 9 1020.4 - 0.0 - - 10 - - - -
29/07:30pm 20.9 NNE 6 9 1020.5 - 0.0 - - 10 - - - -
29/07:00pm 21.0 NNE 5 7 1020.4 - 0.0 - - 10 - - - -
29/06:30pm 20.8 NNE 5 8 1020.3 - 0.0 - - 10 - - - -
29/06:00pm 20.7 NE 7 9 1019.7 - 0.0 - Cloudy 10 - - - -
29/05:30pm 21.4 NNE 6 8 1019.9 - 0.0 - - 10 - - - -
29/05:00pm 22.0 NE 7 13 1019.5 - 0.0 - - 10 - - - -
29/04:30pm 22.4 NE 9 13 1019.2 - 0.0 - - 10 - - - -
29/04:00pm 23.9 ENE 10 16 1019.3 - 0.0 - - 10 - - - -
29/03:30pm 24.5 NE 8 13 1019.3 - 0.0 - - 10 - - - -
29/03:00pm 25.1 NE 8 13 1019.2 - 0.0 - - 10 - - - -
29/02:30pm 26.2 NE 9 14 1019.4 - 0.0 - - 10 - - - -
29/02:00pm 26.5 NE 9 13 1019.5 - 0.0 - - 10 - - - -
29/01:30pm 26.4 NE 11 15 1019.3 - 0.0 - - 10 - - - -
29/01:00pm 26.6 NE 8 11 1019.6 - 0.0 - - 10 - - - -
29/12:30pm 26.8 NE 11 15 1019.9 - 0.0 - - 10 - - - -
29/12:00pm 26.7 NE 8 13 1020.8 - 0.0 - - 10 - - - -
29/11:30am 26.2 N 8 12 1021.7 - 0.0 - - 10 - - - -
29/11:00am 25.4 NNE 9 14 1022.5 - 0.0 - - 10 - - - -
29/10:30am 24.9 NNE 6 9 1022.9 - 0.0 - - 10 - - - -
29/10:00am 23.8 NNE 4 7 1023.1 - 0.0 - - 10 - - - -
29/09:30am 22.0 ENE 4 5 1023.3 - 0.0 - - 10 - - - -
29/09:00am 20.1 WSW 1 4 1023.5 - 0.2 - - 10 - - - -
29/08:30am 18.3 W 4 5 1023.9 - 0.2 - - 10 - - - -
29/08:00am 16.5 WSW 3 5 1023.9 - 0.2 - - 10 - - - -
29/07:30am 15.2 SW 2 5 1023.7 - 0.2 - - 10 - - - -
29/07:00am 14.3 CALM 0 0 1023.4 - 0.2 - - 10 - - - -
29/06:30am 13.6 CALM 0 0 1023.3 - 0.2 - - 10 - - - -
29/06:00am 13.7 SW 3 5 1023.0 - 0.2 - - 10 - - - -
29/05:30am 13.7 SW 3 4 1022.9 - 0.2 - - 10 - - - -
29/05:00am 13.9 WSW 4 5 1022.8 - 0.2 - Partly cloudy 10 - - - -
29/04:36am 12.7 CALM 0 0 1022.7 - 0.2 - Partly cloudy 5 - - - -
29/04:31am 12.9 CALM 0 0 1022.7 - 0.2 - - 10 - - - -
29/04:30am 13.2 CALM 0 0 1022.8 - 0.2 - - 10 - - - -
29/04:17am 13.4 CALM 0 0 1022.9 - 0.2 - - 5 - - - -
29/04:11am 13.7 CALM 0 0 1023.0 - 0.2 - - 10 - - - -
29/04:00am 14.4 CALM 0 0 1022.9 - 0.0 - - 2 - - - -
29/03:30am 14.5 CALM 0 0 1022.9 - 0.0 - Partly cloudy 0.7 - - - -
29/03:18am 14.7 CALM 0 0 1022.8 - 0.0 - - 4 - - - -
29/03:13am 14.9 CALM 0 0 1022.9 - 0.0 - - 10 - - - -
29/03:00am 14.9 CALM 0 0 1022.8 - 0.0 - - 2 - - - -
29/02:47am 14.7 CALM 0 0 1022.8 - 0.0 - - 4 - - - -
29/02:30am 15.0 WSW 4 6 1023.0 - 0.0 - - 10 - - - -
29/02:00am 15.5 WSW 1 4 1023.1 - 0.0 - - 10 - - - -
29/01:30am 16.6 W 4 5 1023.5 - 0.0 - - 10 - - - -
29/01:00am 16.3 CALM 0 0 1023.3 - 0.0 - - 10 - - - -
29/12:30am 18.0 NNW 4 4 1023.6 - 0.0 - - 10 - - - -
29/12:00am 16.6 NNE 1 4 1023.5 - 0.0 - - 10 - - - -
 
Date/Time
EST
Temp

°C
Wind Pressure Rain
since 9am
mm
Weather Cloud Vis
km
Sea
Height
m
Swell
Dir
 
Speed
knots
Gust
knots
hPa Trend Height
m
Period
s
Dir
28/11:30pm 17.5 NNE 5 6 1023.8 - 0.0 - - 10 - - - -
28/11:00pm 16.4 NNE 4 6 1024.0 - 0.0 - - 10 - - - -
28/10:30pm 17.3 NE 5 6 1024.2 - 0.0 - - 10 - - - -
28/10:00pm 17.8 NE 5 6 1024.2 - 0.0 - - 10 - - - -
28/09:30pm 18.5 NE 4 5 1024.3 - 0.0 - - 10 - - - -
28/09:00pm 18.5 ENE 6 7 1024.0 - 0.0 - - 10 - - - -
28/08:30pm 19.0 NE 6 8 1024.0 - 0.0 - - 10 - - - -
28/08:00pm 18.9 NE 6 8 1023.9 - 0.0 - - 10 - - - -
28/07:30pm 19.2 NE 5 7 1023.7 - 0.0 - - 10 - - - -
28/07:00pm 19.9 NE 3 4 1023.5 - 0.0 - Partly cloudy 10 - - - -
28/06:30pm 20.0 NE 5 6 1023.3 - 0.0 - Partly cloudy 10 - - - -
28/06:00pm 20.2 NE 7 8 1023.0 - 0.0 - - 10 - - - -
28/05:30pm 20.9 NE 6 8 1022.7 - 0.0 - Partly cloudy 10 - - - -
28/05:00pm 21.8 ENE 7 9 1022.4 - 0.0 - Partly cloudy 10 - - - -
28/04:30pm 22.6 ENE 9 11 1022.3 - 0.0 - Partly cloudy 10 - - - -
28/04:00pm 23.3 NE 7 10 1022.3 - 0.0 - Partly cloudy 10 - - - -
28/03:30pm 24.0 NE 7 11 1022.2 - 0.0 - Partly cloudy 10 - - - -
28/03:00pm 24.5 NE 8 10 1022.2 - 0.0 - Cloudy 10 - - - -
28/02:30pm 24.0 NE 8 11 1022.4 - 0.0 - Cloudy 10 - - - -
28/02:00pm 24.4 NE 9 13 1022.4 - 0.0 - Partly cloudy 10 - - - -
28/01:30pm 23.7 NNE 8 11 1022.6 - 0.0 - - 10 - - - -
28/01:00pm 24.5 NNE 9 16 1022.9 - 0.0 - Partly cloudy 10 - - - -
28/12:30pm 24.5 NE 10 14 1023.3 - 0.0 - Partly cloudy 10 - - - -
28/12:00pm 23.5 NE 5 7 1023.8 - 0.0 - Mostly cloudy 10 - - - -
28/11:30am 22.7 ENE 7 10 1024.5 - 0.0 - Partly cloudy 10 - - - -
28/11:00am 21.9 S 3 6 1024.9 - 0.0 - Partly cloudy 10 - - - -
28/10:30am 20.8 CALM 0 5 1025.2 - 0.0 - Cloudy 10 - - - -
28/10:00am 19.7 WSW 3 4 1025.5 - 0.0 - Partly cloudy 10 - - - -
28/09:30am 19.0 W 3 5 1025.8 - 0.0 - Partly cloudy 10 - - - -
28/09:00am 18.4 W 4 5 1025.6 - 0.4 - Mostly clear 10 - - - -
28/08:30am 17.4 W 5 6 1025.9 - 0.4 - Partly cloudy 10 - - - -
28/08:00am 15.8 W 4 5 1025.7 - 0.4 - Partly cloudy 10 - - - -
28/07:30am 15.1 W 4 5 1025.1 - 0.4 - Partly cloudy 10 - - - -
28/07:00am 14.1 WSW 7 8 1024.6 - 0.4 - Cloudy - - - - -
28/06:30am 13.4 WSW 5 6 1024.3 - 0.4 - Cloudy - - - - -
28/06:00am 12.8 CALM 0 0 1024.2 - 0.4 - Partly cloudy - - - - -
28/05:30am 13.0 W 5 7 1024.0 - 0.4 - - - - - - -
28/05:00am 12.8 WNW 2 5 1023.8 - 0.4 - - - - - - -
28/04:37am 11.9 CALM 0 0 1023.7 - 0.4 - Partly cloudy - - - - -
28/04:30am 12.4 NW 3 5 1023.7 - 0.4 - Partly cloudy - - - - -
28/04:00am 11.3 CALM 0 0 1023.4 - 0.4 - Partly cloudy - - - - -
28/03:56am 11.4 CALM 0 0 1023.4 - 0.4 - Partly cloudy - - - - -
28/03:30am 12.9 CALM 0 0 1023.3 - 0.4 - - - - - - -
28/03:05am 13.5 CALM 0 0 1023.4 - 0.4 - - 5 - - - -
28/03:00am 13.4 SW 1 4 1023.4 - 0.4 - - 6 - - - -
28/02:30am 13.9 W 1 4 1023.8 - 0.4 - - 10 - - - -
28/02:18am 13.6 W 1 3 1023.8 - 0.4 - - 10 - - - -
28/02:00am 14.1 CALM 0 0 1024.0 - 0.4 - - 2 - - - -
28/01:57am 14.1 CALM 0 0 1024.0 - 0.4 - - 5 - - - -
28/01:30am 14.6 W 4 6 1024.1 - 0.2 - - 10 - - - -
28/01:15am 15.0 W 1 4 1024.4 - 0.2 - Partly cloudy 10 - - - -
28/01:13am 14.9 W 1 4 1024.4 - 0.2 - Partly cloudy 10 - - - -

Other Formats:

Comma delimited format used in spreadsheet applications
http://www.bom.gov.au/fwo/IDN60701/IDN60701.95784.axf

JavaScript Object Notation format (JSON) in row-major order
http://www.bom.gov.au/fwo/IDN60701/IDN60701.95784.json